Pembroke, North Carolina
Current Conditions -  °F | °C
As of 4:54 PM on Thursday 23 Oct 2014 (Local Time) from KLBT Reporting Station
Clear Clear  
Wind Chill: 70°   Ceiling: Unl
Heat Index: 70°   Visibility: 10mi
Dew Point: 42°   Wind: 9mph
Humidity: 36%   Direction: 270°W
Pressure: 29.93"   Gusts: NA
Location:  34.68°N, 79.2°W
Report Text: KLBT 232054Z AUTO 27008KT 10SM CLR 21/06 A2993 RMK AO2 SLP135 T02110056 56013
Loading
Personal Weather Stations






























Interactive Weather Map
Tropical Storm Tracking
New forecast layout! Learn more

10-Day Weather Forecast

Advertisements
Track Severe Weather on mobile